Time;durP1;ratioP1;P1;durP2;ratioP2;P2;SDS_P1;SDS_P2;PMS_P1;PMS_P2;Temp;Humidity;BMP_temperature;BMP_pressure;BME280_temperature;BME280_humidity;BME280_pressure;Samples;Min_cycle;Max_cycle;Signal;HPM_P1;HPM_P2
2023/12/24 00:00:15;;;;;;;;;;;9.90;99.90;;;;;;2617027;39;20360;-72
2023/12/24 00:02:45;;;;;;;;;;;10.00;99.90;;;;;;2617291;54;19947;-72
2023/12/24 00:05:15;;;;;;;;;;;10.00;99.90;;;;;;2614997;54;19955;-72
2023/12/24 00:07:47;;;;;;;;;;;10.00;99.90;;;;;;2616650;54;20465;-72
2023/12/24 00:10:17;;;;;;;;;;;10.10;99.90;;;;;;2616406;54;19958;-71
2023/12/24 00:15:28;;;;;;;;;;;10.10;99.90;;;;;;2566707;54;20249;-81
2023/12/24 00:17:58;;;;;;;;;;;10.10;99.90;;;;;;2626562;54;19950;-80
2023/12/24 00:20:29;;;;;;;;;;;10.10;99.90;;;;;;2626503;47;19966;-80
2023/12/24 00:23:11;;;;;;;;;;;10.10;99.90;;;;;;2621057;54;20002;-79
2023/12/24 00:25:41;;;;;;;;;;;10.10;99.90;;;;;;2623886;39;20466;-82
2023/12/24 00:28:12;;;;;;;;;;;10.10;99.90;;;;;;2624018;54;19938;-80
2023/12/24 00:30:42;;;;;;;;;;;10.10;99.90;;;;;;2624137;54;19939;-79
2023/12/24 00:33:12;;;;;;;;;;;10.10;99.90;;;;;;2625076;47;19939;-78
2023/12/24 00:35:42;;;;;;;;;;;10.20;99.90;;;;;;2623717;47;19952;-79
2023/12/24 00:38:14;;;;;;;;;;;10.20;99.90;;;;;;2623987;54;19954;-80
2023/12/24 00:40:44;;;;;;;;;;;10.20;99.90;;;;;;2625896;54;19974;-79
2023/12/24 00:43:14;;;;;;;;;;;10.20;99.90;;;;;;2629048;54;19942;-79
2023/12/24 00:45:44;;;;;;;;;;;11.00;99.90;;;;;;2624354;47;19970;-80
2023/12/24 00:48:14;;;;;;;;;;;10.20;99.90;;;;;;2623283;51;19950;-83
2023/12/24 00:50:44;;;;;;;;;;;10.20;99.90;;;;;;2623279;46;19963;-80
2023/12/24 00:53:17;;;;;;;;;;;10.20;99.90;;;;;;2623064;54;19950;-80
2023/12/24 00:55:47;;;;;;;;;;;10.20;99.90;;;;;;2622825;54;19947;-81
2023/12/24 00:58:17;;;;;;;;;;;10.30;99.90;;;;;;2622374;54;19950;-80
2023/12/24 01:00:47;;;;;;;;;;;10.30;99.90;;;;;;2623015;54;19947;-80
2023/12/24 01:03:17;;;;;;;;;;;10.30;99.90;;;;;;2623031;54;19947;-80
2023/12/24 01:05:47;;;;;;;;;;;9.60;99.90;;;;;;2623340;54;20484;-80
2023/12/24 01:08:20;;;;;;;;;;;10.30;99.90;;;;;;2625186;47;19946;-78
2023/12/24 01:10:50;;;;;;;;;;;10.30;99.90;;;;;;2621777;47;19999;-79
2023/12/24 01:13:22;;;;;;;;;;;10.40;99.90;;;;;;2621980;47;19958;-80
2023/12/24 01:15:52;;;;;;;;;;;10.40;99.90;;;;;;2621674;47;19966;-80
2023/12/24 01:18:22;;;;;;;;;;;10.50;99.90;;;;;;2621321;54;19943;-79
2023/12/24 01:20:52;;;;;;;;;;;10.50;99.90;;;;;;2621969;47;20038;-79
2023/12/24 01:23:26;;;;;;;;;;;10.50;99.90;;;;;;2624788;48;19946;-80
2023/12/24 01:25:56;;;;;;;;;;;10.50;99.90;;;;;;2624905;47;20515;-79
2023/12/24 01:28:26;;;;;;;;;;;10.50;99.90;;;;;;2620514;47;19949;-78
2023/12/24 01:30:56;;;;;;;;;;;10.50;99.90;;;;;;2619491;54;19959;-79
2023/12/24 01:33:25;;;;;;;;;;;10.60;99.90;;;;;;2619338;47;19955;-81
2023/12/24 01:35:55;;;;;;;;;;;10.50;99.90;;;;;;2621469;48;19982;-79
2023/12/24 01:38:28;;;;;;;;;;;10.60;99.90;;;;;;2619103;47;20660;-79
2023/12/24 01:40:58;;;;;;;;;;;11.10;99.90;;;;;;2619859;46;20478;-80
2023/12/24 01:43:28;;;;;;;;;;;10.60;99.90;;;;;;2621339;54;19954;-79
2023/12/24 01:45:58;;;;;;;;;;;10.60;99.90;;;;;;2622046;54;19950;-79
2023/12/24 01:48:28;;;;;;;;;;;10.60;99.90;;;;;;2622027;47;19966;-79
2023/12/24 01:51:00;;;;;;;;;;;12.00;99.90;;;;;;2626293;46;19950;-79
2023/12/24 01:53:33;;;;;;;;;;;10.60;99.90;;;;;;2626214;54;19969;-79
2023/12/24 01:56:04;;;;;;;;;;;10.60;99.90;;;;;;2622569;46;20430;-79
2023/12/24 01:58:34;;;;;;;;;;;10.60;99.90;;;;;;2623399;47;19947;-79
2023/12/24 02:01:04;;;;;;;;;;;10.60;99.90;;;;;;2623390;47;19954;-79
2023/12/24 02:03:34;;;;;;;;;;;10.60;99.90;;;;;;2623938;47;19972;-80
2023/12/24 02:06:05;;;;;;;;;;;10.60;99.90;;;;;;2623538;47;19946;-78
2023/12/24 02:08:38;;;;;;;;;;;10.50;99.90;;;;;;2623181;54;19950;-79
2023/12/24 02:11:10;;;;;;;;;;;10.60;99.90;;;;;;2623309;54;19953;-79
2023/12/24 02:13:40;;;;;;;;;;;10.60;99.90;;;;;;2622767;54;19992;-80
2023/12/24 02:16:10;;;;;;;;;;;10.50;99.90;;;;;;2626460;47;19942;-80
2023/12/24 02:18:41;;;;;;;;;;;10.50;99.90;;;;;;2623401;47;19951;-79
2023/12/24 02:21:13;;;;;;;;;;;10.50;99.90;;;;;;2623342;46;19953;-80
2023/12/24 02:23:43;;;;;;;;;;;10.60;99.90;;;;;;2620451;54;19947;-80
2023/12/24 02:26:21;;;;;;;;;;;10.60;99.90;;;;;;2622971;54;19950;-80
2023/12/24 02:28:52;;;;;;;;;;;10.60;99.90;;;;;;2622622;47;19949;-80
2023/12/24 02:31:23;;;;;;;;;;;10.60;99.90;;;;;;2624169;47;19994;-81
2023/12/24 02:33:53;;;;;;;;;;;10.60;99.90;;;;;;2623830;51;19958;-79
2023/12/24 02:36:25;;;;;;;;;;;11.00;99.90;;;;;;2625742;54;20058;-80
2023/12/24 02:38:55;;;;;;;;;;;10.50;99.90;;;;;;2622530;47;19950;-80
2023/12/24 02:41:25;;;;;;;;;;;10.50;99.90;;;;;;2628930;47;19954;-80
2023/12/24 02:43:55;;;;;;;;;;;10.50;99.90;;;;;;2626629;47;19946;-79
2023/12/24 02:46:25;;;;;;;;;;;10.50;99.90;;;;;;2625788;46;19976;-81
2023/12/24 02:48:54;;;;;;;;;;;10.50;99.90;;;;;;2625922;47;19953;-80
2023/12/24 02:51:29;;;;;;;;;;;10.50;99.90;;;;;;2622047;54;20821;-80
2023/12/24 02:53:59;;;;;;;;;;;10.50;99.90;;;;;;2622426;54;19947;-80
2023/12/24 02:56:36;;;;;;;;;;;10.50;99.90;;;;;;2622091;54;19990;-81
2023/12/24 02:59:06;;;;;;;;;;;10.50;99.90;;;;;;2622508;47;19954;-81
2023/12/24 03:01:36;;;;;;;;;;;10.50;99.90;;;;;;2622655;54;19975;-81
2023/12/24 03:04:06;;;;;;;;;;;10.50;99.90;;;;;;2626851;31;20453;-80
2023/12/24 03:06:38;;;;;;;;;;;10.50;99.90;;;;;;2624075;54;19951;-79
2023/12/24 03:09:10;;;;;;;;;;;10.50;99.90;;;;;;2627020;39;20440;-81
2023/12/24 03:11:40;;;;;;;;;;;10.70;99.90;;;;;;2623959;54;19939;-80
2023/12/24 03:14:10;;;;;;;;;;;10.60;99.90;;;;;;2621035;47;19945;-79
2023/12/24 03:16:39;;;;;;;;;;;10.60;99.90;;;;;;2621402;47;20059;-79
2023/12/24 03:19:09;;;;;;;;;;;10.60;99.90;;;;;;2621902;54;19947;-80
2023/12/24 03:21:44;;;;;;;;;;;10.60;99.90;;;;;;2623476;54;19942;-81
2023/12/24 03:24:14;;;;;;;;;;;10.60;99.90;;;;;;2626863;47;20539;-81
2023/12/24 03:26:44;;;;;;;;;;;10.60;99.90;;;;;;2622216;47;19946;-80
2023/12/24 03:29:16;;;;;;;;;;;10.60;99.90;;;;;;2622110;47;19995;-80
2023/12/24 03:31:46;;;;;;;;;;;10.60;99.90;;;;;;2623749;54;20472;-80
2023/12/24 03:34:16;;;;;;;;;;;10.60;99.90;;;;;;2625220;47;19946;-80
2023/12/24 03:36:49;;;;;;;;;;;10.60;99.90;;;;;;2625007;54;19949;-79
2023/12/24 03:39:19;;;;;;;;;;;10.60;99.90;;;;;;2622542;54;20438;-79
2023/12/24 03:41:49;;;;;;;;;;;10.70;99.90;;;;;;2623208;54;19946;-80
2023/12/24 03:44:19;;;;;;;;;;;10.70;99.90;;;;;;2623486;39;20334;-80
2023/12/24 03:46:48;;;;;;;;;;;10.70;99.90;;;;;;2625856;39;20605;-80
2023/12/24 03:49:20;;;;;;;;;;;10.60;99.90;;;;;;2626654;47;19978;-79
2023/12/24 03:51:53;;;;;;;;;;;10.60;99.90;;;;;;2623848;54;20029;-80
2023/12/24 03:54:22;;;;;;;;;;;10.60;99.90;;;;;;2621769;47;19946;-79
2023/12/24 03:56:52;;;;;;;;;;;10.70;99.90;;;;;;2622880;54;19950;-80
2023/12/24 03:59:23;;;;;;;;;;;10.60;99.90;;;;;;2621833;47;19938;-79
2023/12/24 04:01:53;;;;;;;;;;;10.60;99.90;;;;;;2622656;54;19970;-80
2023/12/24 04:04:23;;;;;;;;;;;10.70;99.90;;;;;;2621756;47;19946;-79
2023/12/24 04:06:55;;;;;;;;;;;10.70;99.90;;;;;;2621305;54;20105;-79
2023/12/24 04:09:25;;;;;;;;;;;10.60;99.90;;;;;;2621586;54;19946;-79
2023/12/24 04:11:55;;;;;;;;;;;10.60;99.90;;;;;;2624399;47;19946;-81
2023/12/24 04:14:25;;;;;;;;;;;10.60;99.90;;;;;;2626009;47;19954;-79
2023/12/24 04:16:55;;;;;;;;;;;10.70;99.90;;;;;;2624852;39;20364;-79
2023/12/24 04:19:25;;;;;;;;;;;10.70;99.90;;;;;;2623666;47;19950;-80
2023/12/24 04:21:57;;;;;;;;;;;11.70;99.90;;;;;;2623687;54;20002;-79
2023/12/24 04:24:27;;;;;;;;;;;10.60;99.90;;;;;;2623189;47;20476;-79
2023/12/24 04:26:57;;;;;;;;;;;10.60;99.90;;;;;;2624959;47;19974;-80
2023/12/24 04:29:27;;;;;;;;;;;10.70;99.90;;;;;;2626962;47;19918;-79
2023/12/24 04:31:57;;;;;;;;;;;10.60;99.90;;;;;;2625135;39;20340;-80
2023/12/24 04:34:27;;;;;;;;;;;10.70;99.90;;;;;;2626015;54;19958;-80
2023/12/24 04:36:59;;;;;;;;;;;10.60;99.90;;;;;;2624040;47;19995;-80
2023/12/24 04:39:29;;;;;;;;;;;10.60;99.90;;;;;;2625217;47;19942;-80
2023/12/24 04:41:59;;;;;;;;;;;10.60;99.90;;;;;;2623750;54;19958;-80
2023/12/24 04:44:29;;;;;;;;;;;10.60;99.90;;;;;;2624568;47;20529;-80
2023/12/24 04:46:59;;;;;;;;;;;10.60;99.90;;;;;;2626218;47;19976;-81
2023/12/24 04:49:29;;;;;;;;;;;10.60;99.90;;;;;;2624710;47;20979;-80
2023/12/24 04:52:02;;;;;;;;;;;9.90;99.90;;;;;;2626416;47;19991;-81
2023/12/24 04:54:31;;;;;;;;;;;10.50;99.90;;;;;;2621296;47;19996;-81
2023/12/24 04:57:01;;;;;;;;;;;10.50;99.90;;;;;;2620789;54;19947;-81
2023/12/24 04:59:31;;;;;;;;;;;10.50;99.90;;;;;;2623526;47;19987;-79
2023/12/24 05:02:01;;;;;;;;;;;10.50;99.90;;;;;;2623643;54;20050;-80
2023/12/24 05:04:32;;;;;;;;;;;10.50;99.90;;;;;;2623470;47;19939;-80
2023/12/24 05:07:06;;;;;;;;;;;10.50;99.90;;;;;;2625073;47;20010;-79
2023/12/24 05:09:35;;;;;;;;;;;10.50;99.90;;;;;;2630386;39;20559;-80
2023/12/24 05:12:06;;;;;;;;;;;10.50;99.90;;;;;;2628453;47;19943;-80
2023/12/24 05:14:36;;;;;;;;;;;10.40;99.90;;;;;;2626607;54;19946;-79
2023/12/24 05:17:06;;;;;;;;;;;10.40;99.90;;;;;;2629197;54;19942;-80
2023/12/24 05:19:36;;;;;;;;;;;10.40;99.90;;;;;;2627137;47;20016;-79
2023/12/24 05:22:08;;;;;;;;;;;10.30;99.90;;;;;;2624673;54;19954;-80
2023/12/24 05:24:38;;;;;;;;;;;10.30;99.90;;;;;;2625869;47;20014;-79
2023/12/24 05:27:08;;;;;;;;;;;10.30;99.90;;;;;;2625194;54;19972;-80
2023/12/24 05:29:38;;;;;;;;;;;10.30;99.90;;;;;;2624980;47;19950;-80
2023/12/24 05:32:08;;;;;;;;;;;10.20;99.90;;;;;;2626568;54;19957;-80
2023/12/24 05:34:38;;;;;;;;;;;10.20;99.90;;;;;;2624378;51;19947;-79
2023/12/24 05:37:11;;;;;;;;;;;10.20;99.90;;;;;;2626757;54;19943;-80
2023/12/24 05:39:43;;;;;;;;;;;10.10;99.90;;;;;;2625437;47;19981;-80
2023/12/24 05:42:13;;;;;;;;;;;10.00;99.90;;;;;;2624163;47;19939;-80
2023/12/24 05:44:43;;;;;;;;;;;10.00;99.90;;;;;;2624408;46;19950;-79
2023/12/24 05:47:13;;;;;;;;;;;9.90;99.90;;;;;;2627602;54;19970;-80
2023/12/24 05:49:43;;;;;;;;;;;9.80;99.90;;;;;;2625548;47;19947;-80
2023/12/24 05:52:15;;;;;;;;;;;9.80;99.90;;;;;;2624383;47;19943;-80
2023/12/24 05:54:45;;;;;;;;;;;9.80;99.90;;;;;;2623405;47;20519;-79
2023/12/24 05:57:15;;;;;;;;;;;9.80;99.90;;;;;;2623247;47;19942;-79
2023/12/24 05:59:45;;;;;;;;;;;9.80;99.90;;;;;;2623682;47;19950;-80
2023/12/24 06:02:15;;;;;;;;;;;9.70;99.90;;;;;;2622541;54;19946;-79
2023/12/24 06:04:45;;;;;;;;;;;9.70;99.90;;;;;;2624289;47;19946;-80
2023/12/24 06:07:17;;;;;;;;;;;9.70;99.90;;;;;;2624582;47;19957;-80
2023/12/24 06:09:47;;;;;;;;;;;9.60;99.90;;;;;;2624098;54;20440;-80
2023/12/24 06:12:17;;;;;;;;;;;9.60;99.90;;;;;;2624704;47;19949;-80
2023/12/24 06:14:47;;;;;;;;;;;9.60;99.90;;;;;;2623701;39;20009;-79
2023/12/24 06:17:17;;;;;;;;;;;9.60;99.90;;;;;;2624145;54;19954;-79
2023/12/24 06:19:47;;;;;;;;;;;9.90;99.90;;;;;;2623787;47;20709;-79
2023/12/24 06:22:20;;;;;;;;;;;9.60;99.90;;;;;;2623869;47;19942;-79
2023/12/24 06:24:50;;;;;;;;;;;9.60;99.90;;;;;;2621212;48;19951;-80
2023/12/24 06:27:20;;;;;;;;;;;9.60;99.90;;;;;;2620873;47;19981;-79
2023/12/24 06:29:50;;;;;;;;;;;9.60;99.90;;;;;;2620991;47;19983;-80
2023/12/24 06:32:20;;;;;;;;;;;9.60;99.90;;;;;;2622795;47;19939;-81
2023/12/24 06:34:50;;;;;;;;;;;9.60;99.90;;;;;;2627530;54;19938;-81
2023/12/24 06:37:22;;;;;;;;;;;9.60;99.90;;;;;;2626840;47;19939;-80
2023/12/24 06:39:52;;;;;;;;;;;9.60;99.90;;;;;;2624043;47;19951;-79
2023/12/24 06:42:22;;;;;;;;;;;9.60;99.90;;;;;;2625417;54;19946;-80
2023/12/24 06:44:52;;;;;;;;;;;9.60;99.90;;;;;;2623602;47;20786;-80
2023/12/24 06:47:23;;;;;;;;;;;9.60;99.90;;;;;;2621783;39;20423;-80
2023/12/24 06:49:53;;;;;;;;;;;9.60;99.90;;;;;;2621752;47;19958;-78
2023/12/24 06:52:26;;;;;;;;;;;9.70;99.90;;;;;;2621756;47;19946;-79
2023/12/24 06:54:56;;;;;;;;;;;9.70;99.90;;;;;;2623939;47;19949;-80
2023/12/24 06:57:25;;;;;;;;;;;9.60;99.90;;;;;;2625919;47;19950;-80
2023/12/24 06:59:55;;;;;;;;;;;9.60;99.90;;;;;;2626145;46;19939;-80
2023/12/24 07:02:25;;;;;;;;;;;9.60;99.90;;;;;;2621904;39;20346;-82
2023/12/24 07:04:55;;;;;;;;;;;9.60;99.90;;;;;;2619259;54;19947;-80
2023/12/24 07:07:28;;;;;;;;;;;9.70;99.90;;;;;;2621963;47;20681;-78
2023/12/24 07:09:57;;;;;;;;;;;9.80;99.90;;;;;;2618653;54;19986;-77
2023/12/24 07:12:31;;;;;;;;;;;9.70;99.90;;;;;;2618584;54;20002;-79
2023/12/24 07:15:01;;;;;;;;;;;9.70;99.90;;;;;;2619618;47;19950;-78
2023/12/24 07:17:31;;;;;;;;;;;10.60;99.90;;;;;;2619600;54;20456;-78
2023/12/24 07:20:01;;;;;;;;;;;9.70;99.90;;;;;;2619462;47;20018;-78
2023/12/24 07:22:33;;;;;;;;;;;9.70;99.90;;;;;;2619349;54;19953;-78
2023/12/24 07:25:03;;;;;;;;;;;9.70;99.90;;;;;;2619125;47;19946;-78
2023/12/24 07:27:33;;;;;;;;;;;9.70;99.90;;;;;;2618765;54;20449;-76
2023/12/24 07:30:03;;;;;;;;;;;10.60;99.90;;;;;;2617777;39;21242;-76
2023/12/24 07:32:33;;;;;;;;;;;9.70;99.90;;;;;;2616731;47;19951;-75
2023/12/24 07:35:03;;;;;;;;;;;9.60;99.90;;;;;;2621451;54;19962;-77
2023/12/24 07:37:35;;;;;;;;;;;9.60;99.90;;;;;;2624068;54;20794;-80
2023/12/24 07:40:08;;;;;;;;;;;9.70;99.90;;;;;;2629286;54;19958;-80
2023/12/24 07:42:38;;;;;;;;;;;9.60;99.90;;;;;;2629312;54;19942;-78
2023/12/24 07:45:09;;;;;;;;;;;9.70;99.90;;;;;;2627247;54;19938;-78
2023/12/24 07:47:39;;;;;;;;;;;9.70;99.90;;;;;;2628379;54;20705;-79
2023/12/24 07:50:10;;;;;;;;;;;9.70;99.90;;;;;;2625551;47;19954;-78
2023/12/24 07:52:42;;;;;;;;;;;9.70;99.90;;;;;;2628568;54;19939;-81
2023/12/24 07:55:12;;;;;;;;;;;9.70;99.90;;;;;;2625966;47;19977;-80
2023/12/24 07:57:42;;;;;;;;;;;9.70;99.90;;;;;;2628436;47;19922;-81
2023/12/24 08:00:13;;;;;;;;;;;9.70;99.90;;;;;;2628497;39;20339;-80
2023/12/24 08:02:45;;;;;;;;;;;9.80;99.90;;;;;;2627555;47;20796;-80
2023/12/24 08:05:15;;;;;;;;;;;9.70;99.90;;;;;;2627255;47;20069;-80
2023/12/24 08:07:48;;;;;;;;;;;9.70;99.90;;;;;;2627169;47;19950;-80
2023/12/24 08:10:30;;;;;;;;;;;9.80;99.90;;;;;;2626268;54;19967;-80
2023/12/24 08:13:24;;;;;;;;;;;9.70;99.90;;;;;;2626299;47;20012;-80
2023/12/24 08:16:44;;;;;;;;;;;9.80;99.90;;;;;;2627330;54;19938;-80
2023/12/24 08:22:26;;;;;;;;;;;9.80;99.90;;;;;;2625380;47;19943;-82
2023/12/24 08:25:03;;;;;;;;;;;9.80;99.90;;;;;;2624585;47;19939;-83
2023/12/24 08:27:33;;;;;;;;;;;9.80;99.90;;;;;;2626771;47;19943;-83
2023/12/24 08:30:03;;;;;;;;;;;9.90;99.90;;;;;;2624824;47;19947;-81
2023/12/24 08:32:34;;;;;;;;;;;9.80;99.90;;;;;;2621917;47;19949;-82
2023/12/24 08:35:04;;;;;;;;;;;9.90;99.90;;;;;;2624040;47;20025;-79
2023/12/24 08:37:35;;;;;;;;;;;9.90;99.90;;;;;;2628592;39;20527;-80
2023/12/24 08:40:09;;;;;;;;;;;9.90;99.90;;;;;;2628346;54;20092;-82
2023/12/24 08:42:39;;;;;;;;;;;9.90;99.90;;;;;;2627164;54;19934;-82
2023/12/24 08:45:10;;;;;;;;;;;10.00;99.90;;;;;;2626979;54;19979;-81
2023/12/24 08:47:39;;;;;;;;;;;10.00;99.90;;;;;;2629604;54;19942;-82
2023/12/24 08:50:10;;;;;;;;;;;10.00;99.90;;;;;;2628156;47;19976;-81
2023/12/24 08:52:40;;;;;;;;;;;10.00;99.90;;;;;;2628433;47;20638;-86
2023/12/24 08:55:13;;;;;;;;;;;9.90;99.90;;;;;;2627497;54;19943;-81
2023/12/24 08:57:45;;;;;;;;;;;9.90;99.90;;;;;;2625105;47;19939;-82
2023/12/24 09:00:16;;;;;;;;;;;10.00;99.90;;;;;;2627292;39;20328;-80
2023/12/24 09:02:46;;;;;;;;;;;10.00;99.90;;;;;;2624124;54;19946;-84
2023/12/24 09:05:18;;;;;;;;;;;10.00;99.90;;;;;;2625253;54;20415;-80
2023/12/24 09:07:48;;;;;;;;;;;10.00;99.90;;;;;;2621999;54;19938;-81
2023/12/24 09:10:21;;;;;;;;;;;10.00;99.90;;;;;;2622406;54;19947;-81
2023/12/24 09:12:51;;;;;;;;;;;10.00;99.90;;;;;;2622635;54;19950;-81
2023/12/24 09:15:21;;;;;;;;;;;10.00;99.90;;;;;;2622072;47;19946;-82
2023/12/24 09:17:51;;;;;;;;;;;10.00;99.90;;;;;;2623482;47;19946;-82
2023/12/24 09:20:21;;;;;;;;;;;10.00;99.90;;;;;;2623230;47;19992;-81
2023/12/24 09:22:51;;;;;;;;;;;10.10;99.90;;;;;;2623030;47;19957;-82
2023/12/24 09:25:24;;;;;;;;;;;10.10;99.90;;;;;;2623181;47;20548;-82
2023/12/24 09:27:54;;;;;;;;;;;10.00;99.90;;;;;;2623353;54;19984;-83
2023/12/24 09:30:24;;;;;;;;;;;10.00;99.90;;;;;;2622200;47;20022;-83
2023/12/24 09:32:54;;;;;;;;;;;10.00;99.90;;;;;;2624158;46;19945;-80
2023/12/24 09:35:25;;;;;;;;;;;10.00;99.90;;;;;;2622858;47;19953;-81
2023/12/24 09:37:55;;;;;;;;;;;10.10;99.90;;;;;;2625110;47;19938;-83
2023/12/24 09:40:27;;;;;;;;;;;10.10;99.90;;;;;;2629305;47;19937;-83
2023/12/24 09:42:57;;;;;;;;;;;10.00;99.90;;;;;;2630080;54;19923;-82
2023/12/24 09:45:27;;;;;;;;;;;10.10;99.90;;;;;;2628580;54;20426;-83
2023/12/24 09:47:59;;;;;;;;;;;10.10;99.90;;;;;;2630294;46;19964;-84
2023/12/24 09:50:29;;;;;;;;;;;10.10;99.90;;;;;;2635199;39;20614;-84
2023/12/24 09:52:59;;;;;;;;;;;10.10;99.90;;;;;;2630673;46;19942;-84
2023/12/24 09:55:32;;;;;;;;;;;10.10;99.90;;;;;;2630631;54;19948;-83
2023/12/24 09:58:02;;;;;;;;;;;10.20;99.90;;;;;;2630238;46;19934;-84
2023/12/24 10:00:33;;;;;;;;;;;10.20;99.90;;;;;;2630392;47;19995;-82
2023/12/24 10:03:03;;;;;;;;;;;10.20;99.90;;;;;;2628005;46;20733;-81
2023/12/24 10:05:33;;;;;;;;;;;10.20;99.90;;;;;;2627921;54;19934;-85
2023/12/24 10:08:03;;;;;;;;;;;10.20;99.90;;;;;;2629910;47;19939;-79
2023/12/24 10:10:36;;;;;;;;;;;10.20;99.90;;;;;;2627972;54;19939;-76
2023/12/24 10:13:07;;;;;;;;;;;10.20;99.90;;;;;;2621354;54;19941;-80
2023/12/24 10:15:38;;;;;;;;;;;10.20;99.90;;;;;;2622827;47;20066;-78
2023/12/24 10:18:18;;;;;;;;;;;10.20;99.90;;;;;;2619037;47;20476;-77
2023/12/24 10:20:49;;;;;;;;;;;10.20;99.90;;;;;;2630466;47;19935;-78
2023/12/24 10:23:21;;;;;;;;;;;10.20;99.90;;;;;;2626508;47;19950;-78
2023/12/24 10:26:02;;;;;;;;;;;10.30;99.90;;;;;;2622038;47;19942;-79
2023/12/24 10:28:32;;;;;;;;;;;10.30;99.90;;;;;;2622745;46;19954;-79
2023/12/24 10:31:09;;;;;;;;;;;10.30;99.90;;;;;;2621683;47;19945;-80
2023/12/24 10:33:39;;;;;;;;;;;10.40;99.90;;;;;;2622162;47;19943;-79
2023/12/24 10:36:10;;;;;;;;;;;10.40;99.90;;;;;;2622378;47;19950;-79
2023/12/24 10:38:40;;;;;;;;;;;10.40;99.90;;;;;;2622694;47;19954;-80
2023/12/24 10:41:13;;;;;;;;;;;11.30;99.90;;;;;;2624583;47;19987;-78
2023/12/24 10:43:43;;;;;;;;;;;10.70;99.90;;;;;;2625243;47;19946;-81
2023/12/24 10:46:13;;;;;;;;;;;10.50;99.90;;;;;;2623357;54;19954;-80
2023/12/24 10:48:43;;;;;;;;;;;10.60;99.90;;;;;;2625602;47;20398;-82
2023/12/24 10:51:13;;;;;;;;;;;10.60;99.90;;;;;;2625954;54;19958;-82
2023/12/24 10:53:43;;;;;;;;;;;10.60;99.90;;;;;;2626191;54;19947;-79
2023/12/24 10:56:17;;;;;;;;;;;10.60;99.90;;;;;;2626502;39;20632;-81
2023/12/24 10:58:51;;;;;;;;;;;10.80;99.90;;;;;;2624258;47;19982;-78
2023/12/24 11:01:21;;;;;;;;;;;10.60;99.90;;;;;;2626118;54;19926;-82
2023/12/24 11:03:53;;;;;;;;;;;10.60;99.90;;;;;;2627403;46;19951;-83
2023/12/24 11:06:38;;;;;;;;;;;10.60;99.90;;;;;;2628769;47;19927;-83
2023/12/24 11:09:09;;;;;;;;;;;10.60;99.90;;;;;;2628285;54;19950;-81
2023/12/24 11:11:55;;;;;;;;;;;10.70;99.90;;;;;;2628476;54;20455;-85
2023/12/24 11:14:40;;;;;;;;;;;10.70;99.90;;;;;;2629341;54;19939;-81
2023/12/24 11:17:33;;;;;;;;;;;10.70;99.90;;;;;;2629016;46;19946;-83
2023/12/24 12:50:47;;;;;;;;;;;10.70;99.90;;;;;;2616177;39;20743;-74
2023/12/24 12:53:24;;;;;;;;;;;11.10;99.90;;;;;;2617593;54;19954;-74
2023/12/24 12:56:02;;;;;;;;;;;11.10;99.90;;;;;;2615688;47;19970;-74
2023/12/24 12:58:32;;;;;;;;;;;11.30;99.90;;;;;;2615619;54;19969;-74
2023/12/24 13:01:02;;;;;;;;;;;11.00;99.90;;;;;;2616067;47;19962;-76
2023/12/24 13:03:35;;;;;;;;;;;11.10;99.90;;;;;;2616417;47;19946;-73
2023/12/24 13:06:15;;;;;;;;;;;11.10;99.90;;;;;;2619975;47;19957;-75
2023/12/24 13:08:45;;;;;;;;;;;11.10;99.90;;;;;;2620394;47;20480;-76
2023/12/24 13:11:15;;;;;;;;;;;11.00;99.90;;;;;;2618806;39;20077;-75
2023/12/24 13:13:45;;;;;;;;;;;11.00;99.90;;;;;;2616395;54;19954;-76
2023/12/24 13:16:15;;;;;;;;;;;11.10;99.90;;;;;;2617659;47;19959;-77
2023/12/24 13:18:44;;;;;;;;;;;11.10;99.90;;;;;;2616712;47;19953;-78
2023/12/24 13:23:52;;;;;;;;;;;11.00;99.90;;;;;;2596961;54;19947;-79
2023/12/24 13:26:24;;;;;;;;;;;11.10;99.90;;;;;;2613758;47;19950;-77
2023/12/24 13:28:54;;;;;;;;;;;11.10;99.90;;;;;;2618714;54;19967;-78
2023/12/24 13:31:26;;;;;;;;;;;11.10;99.90;;;;;;2615371;54;20463;-76
2023/12/24 13:33:56;;;;;;;;;;;11.20;99.90;;;;;;2613610;51;20533;-75
2023/12/24 13:36:26;;;;;;;;;;;11.10;99.90;;;;;;2616509;47;19951;-76
2023/12/24 13:38:58;;;;;;;;;;;11.10;99.90;;;;;;2614703;54;19953;-76
2023/12/24 13:41:28;;;;;;;;;;;11.00;99.90;;;;;;2614378;54;19946;-75
2023/12/24 13:43:58;;;;;;;;;;;11.10;99.90;;;;;;2620784;47;19939;-79
2023/12/24 13:46:27;;;;;;;;;;;11.00;99.90;;;;;;2618002;54;19945;-77
2023/12/24 13:48:58;;;;;;;;;;;11.00;99.90;;;;;;2618627;47;19954;-75
2023/12/24 13:51:29;;;;;;;;;;;11.00;99.90;;;;;;2625290;46;19958;-77
2023/12/24 13:54:04;;;;;;;;;;;11.00;99.90;;;;;;2621958;47;19952;-79
2023/12/24 13:56:34;;;;;;;;;;;10.90;99.90;;;;;;2618199;54;19943;-79
2023/12/24 13:59:05;;;;;;;;;;;11.00;99.90;;;;;;2618280;47;19950;-81
2023/12/24 14:01:36;;;;;;;;;;;10.90;99.90;;;;;;2621072;46;20042;-81
2023/12/24 14:04:06;;;;;;;;;;;10.90;99.90;;;;;;2623771;47;19954;-79
2023/12/24 14:06:38;;;;;;;;;;;10.90;99.90;;;;;;2591404;54;19958;-77
2023/12/24 14:09:11;;;;;;;;;;;10.90;99.90;;;;;;2619640;47;19949;-77
2023/12/24 14:11:40;;;;;;;;;;;10.90;99.90;;;;;;2619093;47;20010;-75
2023/12/24 14:14:10;;;;;;;;;;;10.90;99.90;;;;;;2614566;47;19954;-74
2023/12/24 14:16:40;;;;;;;;;;;10.90;99.90;;;;;;2616665;47;20046;-74
2023/12/24 14:19:09;;;;;;;;;;;10.90;99.90;;;;;;2616902;47;19939;-76
2023/12/24 14:21:39;;;;;;;;;;;10.90;99.90;;;;;;2589748;54;20035;-77
2023/12/24 14:24:12;;;;;;;;;;;10.90;99.90;;;;;;2612751;47;19977;-74
2023/12/24 14:26:42;;;;;;;;;;;10.90;99.90;;;;;;2614452;47;19942;-74
2023/12/24 14:29:12;;;;;;;;;;;10.90;99.90;;;;;;2618077;47;20050;-75
2023/12/24 14:31:42;;;;;;;;;;;10.90;99.90;;;;;;2614969;54;19950;-73
2023/12/24 14:34:12;;;;;;;;;;;10.80;99.90;;;;;;2621176;54;19939;-75
2023/12/24 14:36:42;;;;;;;;;;;10.90;99.90;;;;;;2623084;49;20442;-75
2023/12/24 14:39:14;;;;;;;;;;;10.90;99.90;;;;;;2616957;54;19955;-75
2023/12/24 14:41:44;;;;;;;;;;;10.90;99.90;;;;;;2617136;47;19947;-74
2023/12/24 14:44:14;;;;;;;;;;;10.80;99.90;;;;;;2619267;39;20005;-74
2023/12/24 14:46:44;;;;;;;;;;;10.80;99.90;;;;;;2617000;47;20540;-74
2023/12/24 14:49:14;;;;;;;;;;;10.90;99.90;;;;;;2616636;47;19953;-73
2023/12/24 14:51:44;;;;;;;;;;;10.90;99.90;;;;;;2615806;47;20010;-74
2023/12/24 14:54:16;;;;;;;;;;;10.80;99.90;;;;;;2616847;47;20039;-72
2023/12/24 14:56:45;;;;;;;;;;;10.90;99.90;;;;;;2617622;49;19958;-74
2023/12/24 14:59:16;;;;;;;;;;;10.80;99.90;;;;;;2617338;47;19946;-74
2023/12/24 15:01:46;;;;;;;;;;;10.80;99.90;;;;;;2618151;54;19986;-74
2023/12/24 15:04:16;;;;;;;;;;;10.90;99.90;;;;;;2617444;47;19945;-76
2023/12/24 15:06:46;;;;;;;;;;;10.80;99.90;;;;;;2617614;54;19977;-75
2023/12/24 15:09:18;;;;;;;;;;;10.80;99.90;;;;;;2616797;47;19962;-76
2023/12/24 15:11:48;;;;;;;;;;;10.80;99.90;;;;;;2617179;54;19947;-75
2023/12/24 15:14:17;;;;;;;;;;;10.80;99.90;;;;;;2617320;54;19934;-75
2023/12/24 15:16:47;;;;;;;;;;;10.80;99.90;;;;;;2615438;54;19947;-75
2023/12/24 15:19:17;;;;;;;;;;;10.80;99.90;;;;;;2616888;54;19939;-75
2023/12/24 15:21:47;;;;;;;;;;;10.80;99.90;;;;;;2616560;54;19947;-75
2023/12/24 15:24:19;;;;;;;;;;;10.80;99.90;;;;;;2618446;47;19951;-75
2023/12/24 15:26:49;;;;;;;;;;;10.80;99.90;;;;;;2621884;54;20007;-75
2023/12/24 15:29:19;;;;;;;;;;;10.90;99.90;;;;;;2619723;47;20364;-75
2023/12/24 15:31:48;;;;;;;;;;;10.80;99.90;;;;;;2616397;54;19934;-75
2023/12/24 15:34:18;;;;;;;;;;;10.80;99.90;;;;;;2614888;47;19958;-75
2023/12/24 15:36:48;;;;;;;;;;;10.80;99.90;;;;;;2616533;39;20365;-75
2023/12/24 15:39:20;;;;;;;;;;;10.90;99.90;;;;;;2614933;47;19982;-75
2023/12/24 15:41:50;;;;;;;;;;;10.90;99.90;;;;;;2613857;54;19950;-75
2023/12/24 15:44:19;;;;;;;;;;;10.90;99.90;;;;;;2615447;54;19954;-76
2023/12/24 15:46:49;;;;;;;;;;;10.90;99.90;;;;;;2623471;39;20302;-75
2023/12/24 15:49:19;;;;;;;;;;;10.90;99.90;;;;;;2619591;47;19959;-75
2023/12/24 15:51:49;;;;;;;;;;;10.90;99.90;;;;;;2619293;54;19946;-75
2023/12/24 15:54:21;;;;;;;;;;;10.90;99.90;;;;;;2615894;39;20350;-75
2023/12/24 15:56:52;;;;;;;;;;;10.90;99.90;;;;;;2612878;47;19951;-76
2023/12/24 15:59:22;;;;;;;;;;;10.90;99.90;;;;;;2616115;47;20457;-76
2023/12/24 16:01:51;;;;;;;;;;;10.80;99.90;;;;;;2615609;47;20414;-79
2023/12/24 16:04:21;;;;;;;;;;;11.60;99.90;;;;;;2617914;39;21324;-76
2023/12/24 16:06:51;;;;;;;;;;;10.60;99.90;;;;;;2614845;47;19962;-78
2023/12/24 16:09:25;;;;;;;;;;;10.90;99.90;;;;;;2613725;47;20110;-79
2023/12/24 16:11:55;;;;;;;;;;;10.60;99.90;;;;;;2616973;31;20477;-77
2023/12/24 16:14:25;;;;;;;;;;;10.90;99.90;;;;;;2617018;54;19953;-77
2023/12/24 16:16:54;;;;;;;;;;;10.80;99.90;;;;;;2618912;47;19953;-78
2023/12/24 16:19:24;;;;;;;;;;;10.80;99.90;;;;;;2616436;47;19934;-74